createdAt,value
2023-06-23T00:00:12.200Z,20.60
2023-06-23T00:02:42.606Z,20.53
2023-06-23T00:05:09.424Z,20.49
2023-06-23T00:07:36.723Z,20.47
2023-06-23T00:10:06.580Z,20.44
2023-06-23T00:12:34.336Z,20.40
2023-06-23T00:15:01.904Z,20.38
2023-06-23T00:17:30.738Z,20.37
2023-06-23T00:19:58.011Z,20.36
2023-06-23T00:22:25.958Z,20.36
2023-06-23T00:24:52.765Z,20.36
2023-06-23T00:27:19.948Z,20.36
2023-06-23T00:29:46.709Z,20.34
2023-06-23T00:32:13.416Z,20.30
2023-06-23T00:34:40.412Z,20.25
2023-06-23T00:37:07.051Z,20.23
2023-06-23T00:39:33.903Z,20.22
2023-06-23T00:42:05.409Z,20.21
2023-06-23T00:44:34.148Z,20.22
2023-06-23T00:47:02.947Z,20.24
2023-06-23T00:49:30.145Z,20.23
2023-06-23T00:52:01.627Z,20.23
2023-06-23T00:54:28.937Z,20.22
2023-06-23T00:56:59.262Z,20.22
2023-06-23T00:59:31.125Z,20.21
2023-06-23T01:01:59.625Z,20.19
2023-06-23T01:04:27.423Z,20.19
2023-06-23T01:07:00.841Z,20.16
2023-06-23T01:09:35.170Z,20.11
2023-06-23T01:12:12.856Z,20.08
2023-06-23T01:14:47.415Z,20.07
2023-06-23T01:17:50.352Z,20.06
2023-06-23T01:20:21.908Z,20.05
2023-06-23T01:23:22.927Z,20.04
2023-06-23T01:26:11.709Z,20.05
2023-06-23T01:28:51.384Z,20.06
2023-06-23T01:32:06.294Z,20.04
2023-06-23T01:34:38.992Z,20.00
2023-06-23T01:37:11.322Z,19.99
2023-06-23T01:39:39.479Z,19.98
2023-06-23T01:42:11.522Z,19.95
2023-06-23T01:44:39.789Z,19.94
2023-06-23T01:47:11.535Z,19.94
2023-06-23T01:49:38.082Z,19.94
2023-06-23T01:52:07.515Z,19.93
2023-06-23T01:54:34.864Z,19.93
2023-06-23T01:57:01.714Z,19.93
2023-06-23T01:59:28.470Z,19.92
2023-06-23T02:01:55.462Z,19.92
2023-06-23T02:04:22.454Z,19.92
2023-06-23T02:06:49.331Z,19.91
2023-06-23T02:09:19.742Z,19.91
2023-06-23T02:11:46.503Z,19.90
2023-06-23T02:14:13.219Z,19.91
2023-06-23T02:16:39.959Z,19.93
2023-06-23T02:19:06.989Z,19.95
2023-06-23T02:21:33.947Z,19.98
2023-06-23T02:24:06.215Z,20.01
2023-06-23T02:26:34.208Z,20.03
2023-06-23T02:29:01.509Z,20.04
2023-06-23T02:31:28.337Z,20.03
2023-06-23T02:33:55.411Z,20.04
2023-06-23T02:36:23.149Z,20.05
2023-06-23T02:38:50.357Z,20.06
2023-06-23T02:41:19.539Z,20.07
2023-06-23T02:43:55.305Z,20.10
2023-06-23T02:46:24.954Z,20.12
2023-06-23T02:48:54.358Z,20.13
2023-06-23T02:51:22.307Z,20.13
2023-06-23T02:53:51.060Z,20.13
2023-06-23T02:56:20.084Z,20.14
2023-06-23T02:58:48.142Z,20.16
2023-06-23T03:01:15.660Z,20.19
2023-06-23T03:03:42.503Z,20.23
2023-06-23T03:06:22.462Z,20.28
2023-06-23T03:08:50.503Z,20.33
2023-06-23T03:11:18.818Z,20.40
2023-06-23T03:13:47.305Z,20.47
2023-06-23T03:16:27.902Z,20.55
2023-06-23T03:19:00.717Z,20.64
2023-06-23T03:21:29.448Z,20.74
2023-06-23T03:23:56.166Z,20.82
2023-06-23T03:26:23.002Z,20.92
2023-06-23T03:28:50.196Z,21.00
2023-06-23T03:31:17.164Z,21.08
2023-06-23T03:33:45.213Z,21.15
2023-06-23T03:36:15.831Z,21.23
2023-06-23T03:39:02.970Z,21.34
2023-06-23T03:41:31.748Z,21.48
2023-06-23T03:44:00.322Z,21.59
2023-06-23T03:46:29.242Z,21.70
2023-06-23T03:48:57.411Z,21.82
2023-06-23T03:51:25.015Z,21.94
2023-06-23T03:53:51.573Z,22.07
2023-06-23T03:56:18.063Z,22.19
2023-06-23T03:58:45.492Z,22.30
2023-06-23T04:01:13.375Z,22.44
2023-06-23T04:03:40.416Z,22.57
2023-06-23T04:06:07.978Z,22.69
2023-06-23T04:08:35.175Z,22.81
2023-06-23T04:11:01.808Z,22.92
2023-06-23T04:13:30.163Z,23.03
2023-06-23T04:15:57.418Z,23.14
2023-06-23T04:18:27.280Z,23.23
2023-06-23T04:20:54.457Z,23.32
2023-06-23T04:23:21.150Z,23.41
2023-06-23T04:25:49.086Z,23.49
2023-06-23T04:28:16.708Z,23.57
2023-06-23T04:30:44.294Z,23.66
2023-06-23T04:33:11.313Z,23.77
2023-06-23T04:35:38.718Z,23.88
2023-06-23T04:38:13.458Z,23.99
2023-06-23T04:41:00.822Z,24.10
2023-06-23T04:43:38.399Z,24.23
2023-06-23T04:46:17.091Z,24.34
2023-06-23T04:48:57.321Z,24.48
2023-06-23T04:51:29.232Z,24.61
2023-06-23T04:53:58.749Z,24.74
2023-06-23T04:56:28.208Z,24.85
2023-06-23T04:58:56.441Z,24.96
2023-06-23T05:01:23.004Z,25.08
2023-06-23T05:03:49.606Z,25.22
2023-06-23T05:06:19.594Z,25.36
2023-06-23T05:08:47.898Z,25.49
2023-06-23T05:11:14.958Z,25.63
2023-06-23T05:13:41.835Z,25.77
2023-06-23T05:16:11.258Z,25.90
2023-06-23T05:18:39.146Z,26.02
2023-06-23T05:21:05.864Z,26.12
2023-06-23T05:23:48.674Z,26.26
2023-06-23T05:26:20.383Z,26.38
2023-06-23T05:28:47.425Z,26.46
2023-06-23T05:31:14.338Z,26.58
2023-06-23T05:33:42.556Z,26.73
2023-06-23T05:36:11.326Z,26.87
2023-06-23T05:38:37.949Z,26.99
2023-06-23T05:41:04.549Z,27.07
2023-06-23T05:43:32.378Z,27.18
2023-06-23T05:45:58.994Z,27.29
2023-06-23T05:48:37.746Z,27.38
2023-06-23T05:51:06.974Z,27.50
2023-06-23T05:53:33.496Z,27.62
2023-06-23T05:56:03.605Z,27.75
2023-06-23T05:58:32.326Z,27.87
2023-06-23T06:01:00.323Z,27.96
2023-06-23T06:03:30.350Z,28.09
2023-06-23T06:05:57.273Z,28.25
2023-06-23T06:08:25.321Z,28.39
2023-06-23T06:10:52.057Z,28.49
2023-06-23T06:13:18.952Z,28.57
2023-06-23T06:15:45.641Z,28.67
2023-06-23T06:18:15.401Z,28.78
2023-06-23T06:20:46.433Z,28.91
2023-06-23T06:23:24.571Z,29.05
2023-06-23T06:25:55.770Z,29.20
2023-06-23T06:28:24.576Z,29.26
2023-06-23T06:30:51.426Z,29.33
2023-06-23T06:33:18.267Z,29.39
2023-06-23T06:35:44.812Z,29.46
2023-06-23T06:38:11.979Z,29.53
2023-06-23T06:40:39.484Z,29.57
2023-06-23T06:43:06.035Z,29.63
2023-06-23T06:45:35.473Z,29.68
2023-06-23T06:48:04.088Z,29.71
2023-06-23T06:50:31.865Z,29.72
2023-06-23T06:52:58.903Z,29.77
2023-06-23T06:55:25.643Z,29.84
2023-06-23T06:57:52.491Z,29.93
2023-06-23T07:00:20.278Z,30.04
2023-06-23T07:02:47.095Z,30.15
2023-06-23T07:05:14.280Z,30.22
2023-06-23T07:07:42.633Z,30.30
2023-06-23T07:10:09.481Z,30.39
2023-06-23T07:12:38.728Z,30.49
2023-06-23T07:15:08.290Z,30.60
2023-06-23T07:17:36.989Z,30.70
2023-06-23T07:20:05.448Z,30.76
2023-06-23T07:22:33.707Z,30.86
2023-06-23T07:25:00.181Z,30.99
2023-06-23T07:27:27.106Z,30.98
2023-06-23T07:29:53.791Z,30.97
2023-06-23T07:32:20.387Z,30.98
2023-06-23T07:34:47.063Z,31.03
2023-06-23T07:37:13.581Z,31.12
2023-06-23T07:39:40.165Z,31.21
2023-06-23T07:42:07.106Z,31.31
2023-06-23T07:44:35.974Z,31.38
2023-06-23T07:47:04.107Z,31.36
2023-06-23T07:49:30.940Z,31.30
2023-06-23T07:52:00.910Z,31.26
2023-06-23T07:54:28.673Z,31.33
2023-06-23T07:56:55.527Z,31.44
2023-06-23T07:59:22.857Z,31.46
2023-06-23T08:01:49.392Z,31.44
2023-06-23T08:04:16.298Z,31.53
2023-06-23T08:06:43.255Z,31.61
2023-06-23T08:09:10.157Z,31.68
2023-06-23T08:11:36.714Z,31.79
2023-06-23T08:14:03.382Z,31.92
2023-06-23T08:16:30.382Z,32.06
2023-06-23T08:18:57.172Z,32.14
2023-06-23T08:21:23.717Z,32.25
2023-06-23T08:23:50.539Z,32.36
2023-06-23T08:26:23.115Z,32.42
2023-06-23T08:28:49.765Z,32.48
2023-06-23T08:31:16.970Z,32.43
2023-06-23T08:33:43.691Z,32.38
2023-06-23T08:36:10.503Z,32.36
2023-06-23T08:38:37.593Z,32.37
2023-06-23T08:41:04.228Z,32.41
2023-06-23T08:43:31.346Z,32.48
2023-06-23T08:45:59.231Z,32.33
2023-06-23T08:48:26.857Z,32.33
2023-06-23T08:50:54.639Z,32.39
2023-06-23T08:53:23.360Z,32.40
2023-06-23T08:55:51.015Z,32.45
2023-06-23T08:58:21.735Z,32.50
2023-06-23T09:00:53.405Z,32.45
2023-06-23T09:03:22.962Z,32.43
2023-06-23T09:05:49.802Z,32.53
2023-06-23T09:08:16.633Z,32.68
2023-06-23T09:10:43.587Z,32.82
2023-06-23T09:13:15.040Z,32.96
2023-06-23T09:16:00.191Z,33.10
2023-06-23T09:18:39.652Z,33.25
2023-06-23T09:21:06.723Z,33.34
2023-06-23T09:23:34.394Z,33.40
2023-06-23T09:26:04.037Z,33.35
2023-06-23T09:28:32.754Z,33.24
2023-06-23T09:31:00.725Z,33.18
2023-06-23T09:33:27.955Z,33.17
2023-06-23T09:35:56.181Z,33.23
2023-06-23T09:38:25.188Z,33.34
2023-06-23T09:41:03.358Z,33.47
2023-06-23T09:43:37.879Z,33.60
2023-06-23T09:46:11.333Z,33.67
2023-06-23T09:48:40.679Z,33.63
2023-06-23T09:51:07.257Z,33.42
2023-06-23T09:53:37.746Z,33.40
2023-06-23T09:56:05.142Z,33.48
2023-06-23T09:58:32.969Z,33.56
2023-06-23T10:01:01.731Z,33.65
2023-06-23T10:03:31.674Z,33.69
2023-06-23T10:05:59.443Z,33.72
2023-06-23T10:08:29.390Z,33.63
2023-06-23T10:10:56.712Z,33.60
2023-06-23T10:13:23.491Z,33.61
2023-06-23T10:15:50.158Z,33.61
2023-06-23T10:18:17.388Z,33.59
2023-06-23T10:20:44.522Z,33.62
2023-06-23T10:23:11.901Z,33.69
2023-06-23T10:25:38.486Z,33.75
2023-06-23T10:28:09.405Z,33.80
2023-06-23T10:30:36.495Z,33.85
2023-06-23T10:33:03.637Z,33.88
2023-06-23T10:35:31.026Z,33.87
2023-06-23T10:38:04.131Z,33.73
2023-06-23T10:40:37.135Z,33.60
2023-06-23T10:43:03.749Z,33.44
2023-06-23T10:45:30.366Z,33.23
2023-06-23T10:47:57.012Z,33.17
2023-06-23T10:50:24.323Z,33.21
2023-06-23T10:52:51.136Z,33.28
2023-06-23T10:55:48.569Z,33.34
2023-06-23T10:58:29.488Z,33.42
2023-06-23T11:00:56.625Z,33.43
2023-06-23T11:03:36.658Z,33.37
2023-06-23T11:06:08.013Z,33.28
2023-06-23T11:08:35.960Z,33.19
2023-06-23T11:11:09.952Z,33.08
2023-06-23T11:13:42.344Z,32.91
2023-06-23T11:16:15.254Z,32.91
2023-06-23T11:18:52.042Z,32.94
2023-06-23T11:21:28.184Z,32.98
2023-06-23T11:24:20.121Z,32.99
2023-06-23T11:26:49.984Z,33.01
2023-06-23T11:29:19.804Z,33.00
2023-06-23T11:32:03.570Z,32.98
2023-06-23T11:34:31.376Z,32.88
2023-06-23T11:36:59.627Z,32.85
2023-06-23T11:39:26.498Z,32.91
2023-06-23T11:41:53.113Z,32.96
2023-06-23T11:44:21.482Z,32.96
2023-06-23T11:46:51.353Z,32.87
2023-06-23T11:49:17.893Z,32.82
2023-06-23T11:51:44.464Z,32.77
2023-06-23T11:54:11.154Z,32.75
2023-06-23T11:56:40.634Z,32.78
2023-06-23T11:59:09.515Z,32.83
2023-06-23T12:01:36.570Z,32.89
2023-06-23T12:04:06.503Z,32.95
2023-06-23T12:06:37.249Z,32.87
2023-06-23T12:09:04.240Z,32.80
2023-06-23T12:11:33.139Z,32.79
2023-06-23T12:14:01.053Z,32.83
2023-06-23T12:16:36.628Z,32.89
2023-06-23T12:19:03.512Z,32.98
2023-06-23T12:21:30.352Z,32.99
2023-06-23T12:23:57.254Z,32.91
2023-06-23T12:26:23.826Z,32.85
2023-06-23T12:28:50.355Z,32.86
2023-06-23T12:31:28.778Z,32.90
2023-06-23T12:34:00.402Z,32.90
2023-06-23T12:36:27.168Z,32.83
2023-06-23T12:38:57.123Z,32.77
2023-06-23T12:41:25.222Z,32.78
2023-06-23T12:44:03.805Z,32.78
2023-06-23T12:46:33.549Z,32.73
2023-06-23T12:49:00.606Z,32.59
2023-06-23T12:51:34.530Z,32.47
2023-06-23T12:54:01.651Z,32.40
2023-06-23T12:56:28.221Z,32.25
2023-06-23T12:58:55.234Z,32.01
2023-06-23T13:01:23.041Z,31.66
2023-06-23T13:03:50.457Z,31.02
2023-06-23T13:06:17.489Z,30.60
2023-06-23T13:08:46.449Z,30.40
2023-06-23T13:11:12.981Z,30.29
2023-06-23T13:13:41.526Z,30.07
2023-06-23T13:16:08.419Z,29.76
2023-06-23T13:18:35.314Z,29.36
2023-06-23T13:21:02.224Z,28.99
2023-06-23T13:23:29.064Z,28.85
2023-06-23T13:25:55.727Z,28.80
2023-06-23T13:28:23.711Z,28.77
2023-06-23T13:30:50.471Z,28.72
2023-06-23T13:33:19.894Z,28.63
2023-06-23T13:35:46.611Z,28.55
2023-06-23T13:38:13.133Z,28.60
2023-06-23T13:40:40.860Z,28.69
2023-06-23T13:43:07.575Z,28.86
2023-06-23T13:45:34.901Z,29.04
2023-06-23T13:48:01.775Z,29.11
2023-06-23T13:50:28.610Z,29.01
2023-06-23T13:52:55.237Z,28.94
2023-06-23T13:55:22.058Z,29.01
2023-06-23T13:57:48.967Z,29.13
2023-06-23T14:00:16.085Z,29.17
2023-06-23T14:02:42.914Z,29.13
2023-06-23T14:05:09.577Z,29.15
2023-06-23T14:07:37.691Z,29.23
2023-06-23T14:10:06.517Z,29.28
2023-06-23T14:12:34.537Z,29.31
2023-06-23T14:15:01.137Z,29.43
2023-06-23T14:17:30.396Z,29.58
2023-06-23T14:19:57.040Z,29.74
2023-06-23T14:22:25.045Z,29.87
2023-06-23T14:24:51.625Z,29.99
2023-06-23T14:27:18.187Z,30.06
2023-06-23T14:29:45.003Z,30.10
2023-06-23T14:32:11.692Z,30.10
2023-06-23T14:34:38.759Z,30.11
2023-06-23T14:37:06.046Z,30.14
2023-06-23T14:39:32.740Z,30.14
2023-06-23T14:41:59.205Z,30.13
2023-06-23T14:44:27.249Z,30.15
2023-06-23T14:46:57.076Z,30.17
2023-06-23T14:49:24.201Z,30.20
2023-06-23T14:51:50.830Z,30.19
2023-06-23T14:54:18.148Z,30.19
2023-06-23T14:56:45.882Z,30.22
2023-06-23T14:59:13.432Z,30.25
2023-06-23T15:01:40.318Z,30.28
2023-06-23T15:04:06.957Z,30.28
2023-06-23T15:06:33.828Z,30.27
2023-06-23T15:09:00.617Z,30.23
2023-06-23T15:11:28.446Z,30.15
2023-06-23T15:13:55.248Z,30.06
2023-06-23T15:16:22.414Z,30.00
2023-06-23T15:18:48.933Z,29.96
2023-06-23T15:21:15.532Z,29.94
2023-06-23T15:23:42.441Z,29.95
2023-06-23T15:26:08.943Z,29.98
2023-06-23T15:28:36.714Z,29.98
2023-06-23T15:31:03.273Z,29.98
2023-06-23T15:33:29.769Z,29.97
2023-06-23T15:35:56.335Z,29.94
2023-06-23T15:38:24.306Z,29.91
2023-06-23T15:40:50.641Z,29.90
2023-06-23T15:43:17.157Z,29.89
2023-06-23T15:45:44.568Z,29.84
2023-06-23T15:48:11.741Z,29.79
2023-06-23T15:50:38.487Z,29.76
2023-06-23T15:53:05.152Z,29.76
2023-06-23T15:55:32.051Z,29.75
2023-06-23T15:57:58.875Z,29.73
2023-06-23T16:00:25.620Z,29.70
2023-06-23T16:02:52.539Z,29.69
2023-06-23T16:05:19.524Z,29.68
2023-06-23T16:07:46.244Z,29.65
2023-06-23T16:10:12.705Z,29.59
2023-06-23T16:12:40.390Z,29.56
2023-06-23T16:15:07.209Z,29.53
2023-06-23T16:17:33.678Z,29.51
2023-06-23T16:20:00.612Z,29.49
2023-06-23T16:22:27.499Z,29.45
2023-06-23T16:24:53.947Z,29.41
2023-06-23T16:27:20.601Z,29.38
2023-06-23T16:29:47.335Z,29.34
2023-06-23T16:32:13.959Z,29.29
2023-06-23T16:34:41.696Z,29.25
2023-06-23T16:37:08.367Z,29.20
2023-06-23T16:39:35.394Z,29.16
2023-06-23T16:42:02.055Z,29.10
2023-06-23T16:44:28.969Z,29.02
2023-06-23T16:46:55.864Z,28.95
2023-06-23T16:49:22.351Z,28.87
2023-06-23T16:51:48.942Z,28.80
2023-06-23T16:54:15.291Z,28.72
2023-06-23T16:56:42.226Z,28.65
2023-06-23T16:59:09.188Z,28.58
2023-06-23T17:01:36.336Z,28.49
2023-06-23T17:04:03.225Z,28.42
2023-06-23T17:06:30.277Z,28.35
2023-06-23T17:08:56.672Z,28.27
2023-06-23T17:11:23.084Z,28.20
2023-06-23T17:13:49.980Z,28.13
2023-06-23T17:16:16.717Z,28.06
2023-06-23T17:18:43.021Z,28.00
2023-06-23T17:21:09.740Z,27.92
2023-06-23T17:23:36.593Z,27.85
2023-06-23T17:26:03.149Z,27.79
2023-06-23T17:28:30.131Z,27.72
2023-06-23T17:30:57.042Z,27.65
2023-06-23T17:33:23.569Z,27.60
2023-06-23T17:35:50.151Z,27.54
2023-06-23T17:38:17.352Z,27.48
2023-06-23T17:40:43.791Z,27.41
2023-06-23T17:43:10.413Z,27.36
2023-06-23T17:45:37.545Z,27.31
2023-06-23T17:48:04.513Z,27.25
2023-06-23T17:50:33.499Z,27.22
2023-06-23T17:53:00.069Z,27.21
2023-06-23T17:55:26.686Z,27.17
2023-06-23T17:57:53.151Z,27.12
2023-06-23T18:00:19.905Z,27.07
2023-06-23T18:02:47.611Z,27.02
2023-06-23T18:05:14.418Z,26.99
2023-06-23T18:07:42.991Z,26.96
2023-06-23T18:10:09.575Z,26.91
2023-06-23T18:12:37.179Z,26.81
2023-06-23T18:15:03.828Z,26.71
2023-06-23T18:17:31.450Z,26.64
2023-06-23T18:19:58.421Z,26.58
2023-06-23T18:22:25.990Z,26.52
2023-06-23T18:24:52.499Z,26.46
2023-06-23T18:27:19.038Z,26.42
2023-06-23T18:29:46.400Z,26.34
2023-06-23T18:32:26.928Z,26.28
2023-06-23T18:34:53.809Z,26.22
2023-06-23T18:37:20.697Z,26.16
2023-06-23T18:39:47.603Z,26.09
2023-06-23T18:42:14.370Z,26.02
2023-06-23T18:44:40.948Z,25.94
2023-06-23T18:47:07.578Z,25.86
2023-06-23T18:49:34.582Z,25.78
2023-06-23T18:52:01.153Z,25.72
2023-06-23T18:54:27.681Z,25.65
2023-06-23T18:56:54.931Z,25.59
2023-06-23T18:59:23.957Z,25.54
2023-06-23T19:01:50.906Z,25.47
2023-06-23T19:04:17.748Z,25.40
2023-06-23T19:06:45.183Z,25.31
2023-06-23T19:09:12.060Z,25.23
2023-06-23T19:11:39.411Z,25.15
2023-06-23T19:14:05.841Z,25.10
2023-06-23T19:16:33.321Z,25.05
2023-06-23T19:18:59.868Z,25.00
2023-06-23T19:21:27.416Z,24.95
2023-06-23T19:23:54.416Z,24.91
2023-06-23T19:26:21.099Z,24.87
2023-06-23T19:28:47.949Z,24.82
2023-06-23T19:31:14.654Z,24.76
2023-06-23T19:33:41.579Z,24.73
2023-06-23T19:36:08.194Z,24.68
2023-06-23T19:38:35.075Z,24.64
2023-06-23T19:41:01.646Z,24.59
2023-06-23T19:43:28.711Z,24.54
2023-06-23T19:45:55.254Z,24.50
2023-06-23T19:48:21.918Z,24.44
2023-06-23T19:50:48.260Z,24.41
2023-06-23T19:53:14.943Z,24.38
2023-06-23T19:55:41.620Z,24.36
2023-06-23T19:58:16.233Z,24.33
2023-06-23T20:00:43.086Z,24.30
2023-06-23T20:03:09.859Z,24.27
2023-06-23T20:05:36.550Z,24.24
2023-06-23T20:08:03.314Z,24.20
2023-06-23T20:10:30.808Z,24.17
2023-06-23T20:12:57.619Z,24.15
2023-06-23T20:15:24.103Z,24.12
2023-06-23T20:17:50.929Z,24.08
2023-06-23T20:20:17.420Z,24.04
2023-06-23T20:22:43.901Z,23.99
2023-06-23T20:25:11.760Z,23.96
2023-06-23T20:27:38.972Z,23.94
2023-06-23T20:30:06.740Z,23.91
2023-06-23T20:32:33.463Z,23.88
2023-06-23T20:34:59.966Z,23.85
2023-06-23T20:37:26.375Z,23.81
2023-06-23T20:39:52.807Z,23.76
2023-06-23T20:42:19.221Z,23.72
2023-06-23T20:44:45.664Z,23.67
2023-06-23T20:47:12.218Z,23.61
2023-06-23T20:49:38.889Z,23.57
2023-06-23T20:52:05.602Z,23.53
2023-06-23T20:54:32.521Z,23.49
2023-06-23T20:56:59.426Z,23.44
2023-06-23T20:59:26.339Z,23.40
2023-06-23T21:01:53.029Z,23.35
2023-06-23T21:04:19.590Z,23.31
2023-06-23T21:06:46.057Z,23.28
2023-06-23T21:09:12.979Z,23.23
2023-06-23T21:11:39.640Z,23.18
2023-06-23T21:14:06.204Z,23.16
2023-06-23T21:16:32.659Z,23.13
2023-06-23T21:18:59.146Z,23.12
2023-06-23T21:21:25.566Z,23.09
2023-06-23T21:23:57.378Z,23.08
2023-06-23T21:26:24.331Z,23.05
2023-06-23T21:28:50.760Z,23.04
2023-06-23T21:31:17.787Z,23.02
2023-06-23T21:33:44.595Z,22.99
2023-06-23T21:36:11.062Z,22.97
2023-06-23T21:38:37.519Z,22.95
2023-06-23T21:41:04.078Z,22.93
2023-06-23T21:43:30.911Z,22.90
2023-06-23T21:45:57.916Z,22.89
2023-06-23T21:48:24.386Z,22.88
2023-06-23T21:50:50.788Z,22.85
2023-06-23T21:53:17.225Z,22.81
2023-06-23T21:55:43.743Z,22.77
2023-06-23T21:58:10.171Z,22.74
2023-06-23T22:00:36.891Z,22.73
2023-06-23T22:03:04.533Z,22.72
2023-06-23T22:05:31.693Z,22.73
2023-06-23T22:07:58.219Z,22.71
2023-06-23T22:10:24.778Z,22.71
2023-06-23T22:12:51.144Z,22.70
2023-06-23T22:15:17.485Z,22.69
2023-06-23T22:17:46.514Z,22.68
2023-06-23T22:20:14.764Z,22.68
2023-06-23T22:22:41.299Z,22.67
2023-06-23T22:25:08.121Z,22.67
2023-06-23T22:27:35.417Z,22.68
2023-06-23T22:30:02.455Z,22.69
2023-06-23T22:32:29.317Z,22.69
2023-06-23T22:34:56.164Z,22.70
2023-06-23T22:37:22.780Z,22.71
2023-06-23T22:39:49.589Z,22.71
2023-06-23T22:42:16.145Z,22.72
2023-06-23T22:44:42.598Z,22.70
2023-06-23T22:47:09.130Z,22.71
2023-06-23T22:49:38.037Z,22.72
2023-06-23T22:52:09.668Z,22.73
2023-06-23T22:54:37.667Z,22.74
2023-06-23T22:57:04.588Z,22.74
2023-06-23T22:59:31.135Z,22.74
2023-06-23T23:01:57.813Z,22.73
2023-06-23T23:04:24.233Z,22.68
2023-06-23T23:06:50.911Z,22.64
2023-06-23T23:09:17.479Z,22.62
2023-06-23T23:11:43.857Z,22.62
2023-06-23T23:14:11.003Z,22.60
2023-06-23T23:16:38.625Z,22.59
2023-06-23T23:19:05.067Z,22.57
2023-06-23T23:21:31.532Z,22.55
2023-06-23T23:23:59.803Z,22.54
2023-06-23T23:26:29.602Z,22.52
2023-06-23T23:28:57.498Z,22.50
2023-06-23T23:31:26.946Z,22.48
2023-06-23T23:34:00.972Z,22.45
2023-06-23T23:36:33.761Z,22.42
2023-06-23T23:39:00.938Z,22.41
2023-06-23T23:41:27.650Z,22.40
2023-06-23T23:43:54.944Z,22.38
2023-06-23T23:46:21.986Z,22.32
2023-06-23T23:48:49.198Z,22.26
2023-06-23T23:51:15.738Z,22.20
2023-06-23T23:53:42.192Z,22.15
2023-06-23T23:56:08.797Z,22.12
2023-06-23T23:58:35.494Z,22.10
